CA-0331 weather

CLOSED Shekilie Airport
Alberta, Canada

Public forecast

Using degrees Celsius for public forecast. Weather courtesy of forecast.io.

Closest aviation weather report (METAR) to Shekilie Airport

Closest report is High Level Airport, 77.0 nm (142.7 km) ESE. Retrieved 2019/10/17 23:43 UTC (13 minutes ago):

CYOJ 172343Z 21002KT 3/4SM -DZ BR OVC003 03/03 A2926 RMK ST8 SLP924

Closest aviation forecast (TAF) to Shekilie Airport

Closest forecast is High Level Airport, 77.0 nm (142.7 km) ESE. Retrieved 2019/10/17 19:42 UTC (4 hours ago):

TAF CYOJ 171839Z 1719/1807 10005KT P6SM -RA OVC008 TEMPO 1719/1723 5SM -SHRA BR OVC004 FM172300 VRB03KT P6SM OVC006 TEMPO 1723/1807 4SM -DZ BR OVC010 RMK NXT FCST BY 180100Z